sensor_id;sensor_type;location;lat;lon;timestamp;pressure;altitude;pressure_sealevel;temperature
45034;BMP280;30771;47.988;-4.186;2023-03-23T07:02:34;97188.44;;;12.63
45034;BMP280;30771;47.988;-4.186;2023-03-23T07:04:59;97160.19;;;12.64
45034;BMP280;30771;47.988;-4.186;2023-03-23T07:07:24;97185.97;;;12.67
45034;BMP280;30771;47.988;-4.186;2023-03-23T07:09:49;97170.94;;;12.67
45034;BMP280;30771;47.988;-4.186;2023-03-23T07:12:15;97177.50;;;12.70
45034;BMP280;30771;47.988;-4.186;2023-03-23T07:14:40;97182.44;;;12.71
45034;BMP280;30771;47.988;-4.186;2023-03-23T07:17:05;97192.72;;;12.73
45034;BMP280;30771;47.988;-4.186;2023-03-23T07:19:30;97196.91;;;12.74
45034;BMP280;30771;47.988;-4.186;2023-03-23T07:21:55;97189.00;;;12.74
45034;BMP280;30771;47.988;-4.186;2023-03-23T07:24:21;97181.88;;;12.74
45034;BMP280;30771;47.988;-4.186;2023-03-23T07:26:46;97200.34;;;12.74
45034;BMP280;30771;47.988;-4.186;2023-03-23T07:29:11;97201.94;;;12.75
45034;BMP280;30771;47.988;-4.186;2023-03-23T07:31:36;97192.63;;;12.78
45034;BMP280;30771;47.988;-4.186;2023-03-23T07:34:02;97192.81;;;12.81
45034;BMP280;30771;47.988;-4.186;2023-03-23T07:36:27;97191.44;;;12.84
45034;BMP280;30771;47.988;-4.186;2023-03-23T07:38:52;97196.94;;;12.87
45034;BMP280;30771;47.988;-4.186;2023-03-23T07:41:18;97198.66;;;12.92
45034;BMP280;30771;47.988;-4.186;2023-03-23T07:43:43;97190.69;;;12.97
45034;BMP280;30771;47.988;-4.186;2023-03-23T07:46:08;97200.03;;;13.03
45034;BMP280;30771;47.988;-4.186;2023-03-23T07:48:33;97211.72;;;13.10
45034;BMP280;30771;47.988;-4.186;2023-03-23T07:50:59;97215.09;;;13.16
45034;BMP280;30771;47.988;-4.186;2023-03-23T07:53:24;97228.47;;;13.19
45034;BMP280;30771;47.988;-4.186;2023-03-23T07:55:49;97249.59;;;13.19
45034;BMP280;30771;47.988;-4.186;2023-03-23T07:58:14;97251.16;;;13.20
45034;BMP280;30771;47.988;-4.186;2023-03-23T08:00:40;97283.66;;;13.21
45034;BMP280;30771;47.988;-4.186;2023-03-23T08:03:05;97274.94;;;13.20
45034;BMP280;30771;47.988;-4.186;2023-03-23T08:05:30;97281.47;;;13.23
45034;BMP280;30771;47.988;-4.186;2023-03-23T08:07:55;97292.81;;;13.23
45034;BMP280;30771;47.988;-4.186;2023-03-23T08:10:21;97298.59;;;13.25
45034;BMP280;30771;47.988;-4.186;2023-03-23T08:12:46;97302.34;;;13.24
45034;BMP280;30771;47.988;-4.186;2023-03-23T08:15:12;97323.16;;;13.26
45034;BMP280;30771;47.988;-4.186;2023-03-23T08:17:38;97326.59;;;13.27
45034;BMP280;30771;47.988;-4.186;2023-03-23T08:20:03;97331.78;;;13.32
45034;BMP280;30771;47.988;-4.186;2023-03-23T08:22:28;97352.91;;;13.32
45034;BMP280;30771;47.988;-4.186;2023-03-23T08:24:53;97374.81;;;13.32
45034;BMP280;30771;47.988;-4.186;2023-03-23T08:27:19;97382.22;;;13.30
45034;BMP280;30771;47.988;-4.186;2023-03-23T08:29:44;97406.00;;;13.30
45034;BMP280;30771;47.988;-4.186;2023-03-23T08:32:09;97412.69;;;13.27
45034;BMP280;30771;47.988;-4.186;2023-03-23T08:34:34;97417.97;;;13.27
45034;BMP280;30771;47.988;-4.186;2023-03-23T08:37:00;97397.63;;;13.28
45034;BMP280;30771;47.988;-4.186;2023-03-23T08:39:25;97411.78;;;13.32
45034;BMP280;30771;47.988;-4.186;2023-03-23T08:41:50;97410.63;;;13.38
45034;BMP280;30771;47.988;-4.186;2023-03-23T08:44:15;97425.31;;;13.44
45034;BMP280;30771;47.988;-4.186;2023-03-23T08:46:40;97438.63;;;13.53
45034;BMP280;30771;47.988;-4.186;2023-03-23T08:49:06;97452.44;;;13.63
45034;BMP280;30771;47.988;-4.186;2023-03-23T08:51:31;97469.25;;;13.67
45034;BMP280;30771;47.988;-4.186;2023-03-23T08:53:56;97501.78;;;13.68
45034;BMP280;30771;47.988;-4.186;2023-03-23T08:56:22;97508.84;;;13.72
45034;BMP280;30771;47.988;-4.186;2023-03-23T08:58:47;97544.25;;;13.71
45034;BMP280;30771;47.988;-4.186;2023-03-23T09:01:12;97560.56;;;13.78
45034;BMP280;30771;47.988;-4.186;2023-03-23T09:03:37;97584.44;;;13.87
45034;BMP280;30771;47.988;-4.186;2023-03-23T09:06:03;97612.06;;;13.94
45034;BMP280;30771;47.988;-4.186;2023-03-23T09:08:29;97630.41;;;14.04
45034;BMP280;30771;47.988;-4.186;2023-03-23T09:10:55;97669.59;;;14.16
45034;BMP280;30771;47.988;-4.186;2023-03-23T09:13:20;97684.81;;;14.24
45034;BMP280;30771;47.988;-4.186;2023-03-23T09:15:45;97712.22;;;14.28
45034;BMP280;30771;47.988;-4.186;2023-03-23T09:18:10;97743.44;;;14.31
45034;BMP280;30771;47.988;-4.186;2023-03-23T09:20:36;97759.81;;;14.33
45034;BMP280;30771;47.988;-4.186;2023-03-23T09:23:01;97795.84;;;14.29
45034;BMP280;30771;47.988;-4.186;2023-03-23T09:25:26;97801.75;;;14.26
45034;BMP280;30771;47.988;-4.186;2023-03-23T09:27:53;97812.94;;;14.36
45034;BMP280;30771;47.988;-4.186;2023-03-23T09:30:19;97805.25;;;14.54
45034;BMP280;30771;47.988;-4.186;2023-03-23T09:32:44;97812.13;;;14.68
45034;BMP280;30771;47.988;-4.186;2023-03-23T09:35:10;97835.09;;;14.73
45034;BMP280;30771;47.988;-4.186;2023-03-23T09:37:35;97849.28;;;14.77
45034;BMP280;30771;47.988;-4.186;2023-03-23T09:40:01;97873.94;;;14.77
45034;BMP280;30771;47.988;-4.186;2023-03-23T09:50:40;97909.94;;;14.92
45034;BMP280;30771;47.988;-4.186;2023-03-23T09:55:37;97920.06;;;14.90
45034;BMP280;30771;47.988;-4.186;2023-03-23T10:00:35;97920.53;;;14.78
45034;BMP280;30771;47.988;-4.186;2023-03-23T10:03:13;97909.72;;;14.75
45034;BMP280;30771;47.988;-4.186;2023-03-23T10:05:40;97904.72;;;14.73
45034;BMP280;30771;47.988;-4.186;2023-03-23T10:08:09;97891.50;;;14.73
45034;BMP280;30771;47.988;-4.186;2023-03-23T10:10:37;97881.38;;;14.75
45034;BMP280;30771;47.988;-4.186;2023-03-23T10:13:09;97879.31;;;14.72
45034;BMP280;30771;47.988;-4.186;2023-03-23T10:15:38;97880.41;;;14.71
45034;BMP280;30771;47.988;-4.186;2023-03-23T10:18:06;97864.78;;;14.70
45034;BMP280;30771;47.988;-4.186;2023-03-23T10:25:50;97837.06;;;14.81
45034;BMP280;30771;47.988;-4.186;2023-03-23T10:28:17;97859.63;;;14.78
45034;BMP280;30771;47.988;-4.186;2023-03-23T10:30:53;97849.97;;;14.69
45034;BMP280;30771;47.988;-4.186;2023-03-23T10:33:23;97841.13;;;14.60
45034;BMP280;30771;47.988;-4.186;2023-03-23T10:35:51;97814.94;;;14.58
45034;BMP280;30771;47.988;-4.186;2023-03-23T10:38:19;97802.84;;;14.52
45034;BMP280;30771;47.988;-4.186;2023-03-23T10:40:47;97783.94;;;14.45
45034;BMP280;30771;47.988;-4.186;2023-03-23T10:43:13;97765.47;;;14.40
45034;BMP280;30771;47.988;-4.186;2023-03-23T10:45:38;97747.56;;;14.37
45034;BMP280;30771;47.988;-4.186;2023-03-23T10:50:35;97691.56;;;14.30
45034;BMP280;30771;47.988;-4.186;2023-03-23T10:53:01;97670.13;;;14.31
45034;BMP280;30771;47.988;-4.186;2023-03-23T10:55:36;97651.59;;;14.31
45034;BMP280;30771;47.988;-4.186;2023-03-23T10:58:06;97631.88;;;14.24
45034;BMP280;30771;47.988;-4.186;2023-03-23T11:00:32;97620.44;;;14.15
45034;BMP280;30771;47.988;-4.186;2023-03-23T11:02:58;97603.88;;;14.09
45034;BMP280;30771;47.988;-4.186;2023-03-23T11:05:35;97583.28;;;14.06
45034;BMP280;30771;47.988;-4.186;2023-03-23T11:08:01;97556.53;;;14.08
45034;BMP280;30771;47.988;-4.186;2023-03-23T11:10:28;97566.06;;;14.09
45034;BMP280;30771;47.988;-4.186;2023-03-23T11:12:58;97562.81;;;14.12
45034;BMP280;30771;47.988;-4.186;2023-03-23T11:17:55;97579.75;;;14.11
45034;BMP280;30771;47.988;-4.186;2023-03-23T11:20:21;97587.69;;;14.11
45034;BMP280;30771;47.988;-4.186;2023-03-23T11:22:46;97566.84;;;14.09
45034;BMP280;30771;47.988;-4.186;2023-03-23T11:25:12;97560.84;;;14.04
45034;BMP280;30771;47.988;-4.186;2023-03-23T11:27:38;97560.13;;;13.98
45034;BMP280;30771;47.988;-4.186;2023-03-23T11:30:11;97529.28;;;13.94
45034;BMP280;30771;47.988;-4.186;2023-03-23T11:32:37;97516.19;;;13.89
45034;BMP280;30771;47.988;-4.186;2023-03-23T11:35:03;97503.25;;;13.87
45034;BMP280;30771;47.988;-4.186;2023-03-23T11:37:35;97476.63;;;13.84
45034;BMP280;30771;47.988;-4.186;2023-03-23T11:48:06;97396.69;;;13.87
45034;BMP280;30771;47.988;-4.186;2023-03-23T11:52:55;97358.44;;;13.84
45034;BMP280;30771;47.988;-4.186;2023-03-23T11:58:11;97324.34;;;13.83
45034;BMP280;30771;47.988;-4.186;2023-03-23T12:00:36;97321.22;;;13.81
45034;BMP280;30771;47.988;-4.186;2023-03-23T12:03:07;97311.13;;;13.83
45034;BMP280;30771;47.988;-4.186;2023-03-23T12:05:43;97301.34;;;13.83
45034;BMP280;30771;47.988;-4.186;2023-03-23T12:08:29;97309.56;;;13.82
45034;BMP280;30771;47.988;-4.186;2023-03-23T12:11:00;97299.88;;;13.77
45034;BMP280;30771;47.988;-4.186;2023-03-23T12:13:41;97300.78;;;13.73
45034;BMP280;30771;47.988;-4.186;2023-03-23T12:16:15;97296.97;;;13.65
45034;BMP280;30771;47.988;-4.186;2023-03-23T12:26:30;97251.47;;;13.55
45034;BMP280;30771;47.988;-4.186;2023-03-23T12:29:08;97230.66;;;13.53
45034;BMP280;30771;47.988;-4.186;2023-03-23T12:42:06;97216.59;;;13.44
45034;BMP280;30771;47.988;-4.186;2023-03-23T12:44:35;97235.88;;;13.31
45034;BMP280;30771;47.988;-4.186;2023-03-23T12:47:44;97222.28;;;13.24
45034;BMP280;30771;47.988;-4.186;2023-03-23T12:49:56;97222.91;;;13.21
45034;BMP280;30771;47.988;-4.186;2023-03-23T12:52:25;97226.72;;;13.15
45034;BMP280;30771;47.988;-4.186;2023-03-23T12:54:54;97236.00;;;13.12
45034;BMP280;30771;47.988;-4.186;2023-03-23T12:59:56;97241.59;;;12.97
45034;BMP280;30771;47.988;-4.186;2023-03-23T13:02:28;97219.38;;;12.98
45034;BMP280;30771;47.988;-4.186;2023-03-23T13:05:05;97193.22;;;13.02
45034;BMP280;30771;47.988;-4.186;2023-03-23T13:07:37;97168.22;;;13.08
45034;BMP280;30771;47.988;-4.186;2023-03-23T13:12:39;97129.88;;;13.10
45034;BMP280;30771;47.988;-4.186;2023-03-23T13:15:15;97128.50;;;13.13
45034;BMP280;30771;47.988;-4.186;2023-03-23T13:22:49;97070.41;;;13.13
45034;BMP280;30771;47.988;-4.186;2023-03-23T13:25:17;97051.13;;;13.12
45034;BMP280;30771;47.988;-4.186;2023-03-23T13:27:43;97035.28;;;13.12
45034;BMP280;30771;47.988;-4.186;2023-03-23T13:30:18;97031.59;;;13.13
45034;BMP280;30771;47.988;-4.186;2023-03-23T13:32:44;97015.75;;;13.13
45034;BMP280;30771;47.988;-4.186;2023-03-23T13:35:13;97009.41;;;13.14
45034;BMP280;30771;47.988;-4.186;2023-03-23T13:37:45;97009.41;;;13.14
45034;BMP280;30771;47.988;-4.186;2023-03-23T13:42:35;96990.41;;;13.12
45034;BMP280;30771;47.988;-4.186;2023-03-23T13:47:44;96979.69;;;13.09
45034;BMP280;30771;47.988;-4.186;2023-03-23T13:57:50;96974.34;;;13.00
45034;BMP280;30771;47.988;-4.186;2023-03-23T14:02:58;96946.31;;;12.91
45034;BMP280;30771;47.988;-4.186;2023-03-23T14:07:57;96947.88;;;12.92
45034;BMP280;30771;47.988;-4.186;2023-03-23T14:10:23;96947.09;;;12.91
45034;BMP280;30771;47.988;-4.186;2023-03-23T14:12:49;96943.31;;;12.84
45034;BMP280;30771;47.988;-4.186;2023-03-23T14:15:15;96936.94;;;12.76
45034;BMP280;30771;47.988;-4.186;2023-03-23T14:17:41;96945.53;;;12.68
45034;BMP280;30771;47.988;-4.186;2023-03-23T14:20:06;96953.88;;;12.62
45034;BMP280;30771;47.988;-4.186;2023-03-23T14:22:35;96965.31;;;12.57
45034;BMP280;30771;47.988;-4.186;2023-03-23T14:27:26;96982.06;;;12.53
45034;BMP280;30771;47.988;-4.186;2023-03-23T14:29:58;96971.31;;;12.49
45034;BMP280;30771;47.988;-4.186;2023-03-23T14:32:24;96995.66;;;12.46
45034;BMP280;30771;47.988;-4.186;2023-03-23T14:34:49;97000.25;;;12.41
45034;BMP280;30771;47.988;-4.186;2023-03-23T14:37:15;97000.84;;;12.38
45034;BMP280;30771;47.988;-4.186;2023-03-23T14:39:43;97002.69;;;12.37
45034;BMP280;30771;47.988;-4.186;2023-03-23T14:42:13;97008.06;;;12.32
45034;BMP280;30771;47.988;-4.186;2023-03-23T14:44:40;96986.03;;;12.28
45034;BMP280;30771;47.988;-4.186;2023-03-23T14:47:06;96988.19;;;12.26
45034;BMP280;30771;47.988;-4.186;2023-03-23T14:49:40;96994.50;;;12.25
45034;BMP280;30771;47.988;-4.186;2023-03-23T14:52:10;96978.69;;;12.25
45034;BMP280;30771;47.988;-4.186;2023-03-23T14:54:35;96966.78;;;12.28
45034;BMP280;30771;47.988;-4.186;2023-03-23T14:57:20;96942.75;;;12.29
45034;BMP280;30771;47.988;-4.186;2023-03-23T14:59:50;96940.09;;;12.29
45034;BMP280;30771;47.988;-4.186;2023-03-23T15:04:44;96909.44;;;12.33
45034;BMP280;30771;47.988;-4.186;2023-03-23T15:07:10;96886.63;;;12.37
45034;BMP280;30771;47.988;-4.186;2023-03-23T15:09:38;96879.84;;;12.36
45034;BMP280;30771;47.988;-4.186;2023-03-23T15:12:04;96872.41;;;12.38
45034;BMP280;30771;47.988;-4.186;2023-03-23T15:16:55;96856.00;;;12.41
45034;BMP280;30771;47.988;-4.186;2023-03-23T15:19:22;96838.47;;;12.45
45034;BMP280;30771;47.988;-4.186;2023-03-23T15:21:50;96845.50;;;12.50
45034;BMP280;30771;47.988;-4.186;2023-03-23T15:24:36;96813.41;;;12.56
45034;BMP280;30771;47.988;-4.186;2023-03-23T15:27:15;96825.09;;;12.64
45034;BMP280;30771;47.988;-4.186;2023-03-23T15:29:50;96788.47;;;12.71
45034;BMP280;30771;47.988;-4.186;2023-03-23T15:32:26;96765.41;;;12.76
45034;BMP280;30771;47.988;-4.186;2023-03-23T15:34:52;96758.13;;;12.82
45034;BMP280;30771;47.988;-4.186;2023-03-23T15:37:21;96766.97;;;12.86
45034;BMP280;30771;47.988;-4.186;2023-03-23T15:39:46;96732.84;;;12.89
45034;BMP280;30771;47.988;-4.186;2023-03-23T15:47:44;96672.47;;;13.05
45034;BMP280;30771;47.988;-4.186;2023-03-23T15:52:50;96646.06;;;13.13
45034;BMP280;30771;47.988;-4.186;2023-03-23T15:55:19;96650.72;;;13.16
45034;BMP280;30771;47.988;-4.186;2023-03-23T15:57:45;96643.28;;;13.18
45034;BMP280;30771;47.988;-4.186;2023-03-23T16:00:10;96636.94;;;13.19
45034;BMP280;30771;47.988;-4.186;2023-03-23T16:02:36;96616.56;;;13.20
45034;BMP280;30771;47.988;-4.186;2023-03-23T16:05:01;96616.56;;;13.20
45034;BMP280;30771;47.988;-4.186;2023-03-23T16:07:26;96581.47;;;13.19
45034;BMP280;30771;47.988;-4.186;2023-03-23T16:09:51;96574.31;;;13.20
45034;BMP280;30771;47.988;-4.186;2023-03-23T16:12:16;96571.38;;;13.21
45034;BMP280;30771;47.988;-4.186;2023-03-23T16:14:42;96563.47;;;13.21
45034;BMP280;30771;47.988;-4.186;2023-03-23T16:17:09;96547.25;;;13.23
45034;BMP280;30771;47.988;-4.186;2023-03-23T16:19:35;96544.63;;;13.23
45034;BMP280;30771;47.988;-4.186;2023-03-23T16:22:00;96535.31;;;13.25
45034;BMP280;30771;47.988;-4.186;2023-03-23T16:24:25;96536.88;;;13.27
45034;BMP280;30771;47.988;-4.186;2023-03-23T16:26:50;96533.13;;;13.27
45034;BMP280;30771;47.988;-4.186;2023-03-23T16:29:16;96519.94;;;13.27
45034;BMP280;30771;47.988;-4.186;2023-03-23T16:31:41;96533.13;;;13.27
45034;BMP280;30771;47.988;-4.186;2023-03-23T16:34:06;96528.28;;;13.29
45034;BMP280;30771;47.988;-4.186;2023-03-23T16:36:32;96521.63;;;13.32
45034;BMP280;30771;47.988;-4.186;2023-03-23T16:38:57;96523.19;;;13.33
45034;BMP280;30771;47.988;-4.186;2023-03-23T16:41:23;96513.09;;;13.35
45034;BMP280;30771;47.988;-4.186;2023-03-23T16:43:48;96525.34;;;13.40
45034;BMP280;30771;47.988;-4.186;2023-03-23T16:46:13;96511.50;;;13.43
45034;BMP280;30771;47.988;-4.186;2023-03-23T16:48:38;96511.50;;;13.43
45034;BMP280;30771;47.988;-4.186;2023-03-23T16:51:03;96480.59;;;13.43
45034;BMP280;30771;47.988;-4.186;2023-03-23T16:53:28;96514.13;;;13.43
45034;BMP280;30771;47.988;-4.186;2023-03-23T16:55:54;96507.78;;;13.44
45034;BMP280;30771;47.988;-4.186;2023-03-23T16:58:19;96511.22;;;13.44
45034;BMP280;30771;47.988;-4.186;2023-03-23T17:00:48;96505.91;;;13.44
45034;BMP280;30771;47.988;-4.186;2023-03-23T17:03:13;96503.28;;;13.44
45034;BMP280;30771;47.988;-4.186;2023-03-23T17:05:38;96494.25;;;13.45
45034;BMP280;30771;47.988;-4.186;2023-03-23T17:08:04;96507.47;;;13.45
45034;BMP280;30771;47.988;-4.186;2023-03-23T17:10:29;96488.50;;;13.43
45034;BMP280;30771;47.988;-4.186;2023-03-23T17:12:55;96524.72;;;13.43
45034;BMP280;30771;47.988;-4.186;2023-03-23T17:15:20;96531.13;;;13.42
45034;BMP280;30771;47.988;-4.186;2023-03-23T17:17:45;96536.22;;;13.38
45034;BMP280;30771;47.988;-4.186;2023-03-23T17:20:11;96591.56;;;13.26
45034;BMP280;30771;47.988;-4.186;2023-03-23T17:22:36;96655.03;;;12.87
45034;BMP280;30771;47.988;-4.186;2023-03-23T17:25:02;96713.56;;;12.41
45034;BMP280;30771;47.988;-4.186;2023-03-23T17:27:27;96763.16;;;12.08
45034;BMP280;30771;47.988;-4.186;2023-03-23T17:29:52;96779.63;;;11.92
45034;BMP280;30771;47.988;-4.186;2023-03-23T17:32:18;96810.47;;;11.78
45034;BMP280;30771;47.988;-4.186;2023-03-23T17:34:43;96831.00;;;11.67
45034;BMP280;30771;47.988;-4.186;2023-03-23T17:37:08;96849.81;;;11.61
45034;BMP280;30771;47.988;-4.186;2023-03-23T17:39:34;96843.53;;;11.48
45034;BMP280;30771;47.988;-4.186;2023-03-23T17:42:00;96850.25;;;11.41
45034;BMP280;30771;47.988;-4.186;2023-03-23T17:44:25;96859.31;;;11.35
45034;BMP280;30771;47.988;-4.186;2023-03-23T17:46:51;96874.22;;;11.39
45034;BMP280;30771;47.988;-4.186;2023-03-23T17:49:17;96869.34;;;11.33
45034;BMP280;30771;47.988;-4.186;2023-03-23T17:51:42;96898.69;;;11.40
45034;BMP280;30771;47.988;-4.186;2023-03-23T17:54:07;96918.19;;;11.39
45034;BMP280;30771;47.988;-4.186;2023-03-23T17:56:33;96911.47;;;11.33
45034;BMP280;30771;47.988;-4.186;2023-03-23T17:58:58;96910.53;;;11.29
45034;BMP280;30771;47.988;-4.186;2023-03-23T18:01:24;96929.41;;;11.31
45034;BMP280;30771;47.988;-4.186;2023-03-23T18:03:49;96931.59;;;11.29
45034;BMP280;30771;47.988;-4.186;2023-03-23T18:06:14;96959.56;;;11.38
45034;BMP280;30771;47.988;-4.186;2023-03-23T18:08:42;96985.91;;;11.38
45034;BMP280;30771;47.988;-4.186;2023-03-23T18:11:08;96970.75;;;11.30
45034;BMP280;30771;47.988;-4.186;2023-03-23T18:13:34;96993.50;;;11.40
45034;BMP280;30771;47.988;-4.186;2023-03-23T18:16:00;96999.34;;;11.37
45034;BMP280;30771;47.988;-4.186;2023-03-23T18:18:26;96996.28;;;11.30
45034;BMP280;30771;47.988;-4.186;2023-03-23T18:21:06;97024.91;;;11.36
45034;BMP280;30771;47.988;-4.186;2023-03-23T18:23:33;97006.13;;;11.24
45034;BMP280;30771;47.988;-4.186;2023-03-23T18:25:59;97038.13;;;11.31
45034;BMP280;30771;47.988;-4.186;2023-03-23T18:28:24;97044.34;;;11.22
45034;BMP280;30771;47.988;-4.186;2023-03-23T18:30:50;97042.00;;;11.20
45034;BMP280;30771;47.988;-4.186;2023-03-23T18:33:16;97049.31;;;11.23
45034;BMP280;30771;47.988;-4.186;2023-03-23T18:35:41;97040.97;;;11.21
45034;BMP280;30771;47.988;-4.186;2023-03-23T18:38:07;97041.59;;;11.13
45034;BMP280;30771;47.988;-4.186;2023-03-23T18:40:32;97041.28;;;11.14
45034;BMP280;30771;47.988;-4.186;2023-03-23T18:42:57;97044.16;;;11.18
45034;BMP280;30771;47.988;-4.186;2023-03-23T18:45:23;97039.22;;;11.11
45034;BMP280;30771;47.988;-4.186;2023-03-23T18:47:49;97050.75;;;11.15
45034;BMP280;30771;47.988;-4.186;2023-03-23T18:50:14;97028.03;;;11.06
45034;BMP280;30771;47.988;-4.186;2023-03-23T18:52:39;97047.28;;;11.20
45034;BMP280;30771;47.988;-4.186;2023-03-23T18:55:05;97041.03;;;11.16
45034;BMP280;30771;47.988;-4.186;2023-03-23T18:57:31;97035.84;;;11.11
45034;BMP280;30771;47.988;-4.186;2023-03-23T18:59:56;97050.38;;;11.22
45034;BMP280;30771;47.988;-4.186;2023-03-23T19:02:21;97047.34;;;11.15
45034;BMP280;30771;47.988;-4.186;2023-03-23T19:04:49;97049.69;;;11.16
45034;BMP280;30771;47.988;-4.186;2023-03-23T19:07:16;97047.56;;;11.19
45034;BMP280;30771;47.988;-4.186;2023-03-23T19:09:42;97057.81;;;11.20
45034;BMP280;30771;47.988;-4.186;2023-03-23T19:12:09;97045.19;;;11.17
45034;BMP280;30771;47.988;-4.186;2023-03-23T19:14:35;97049.13;;;11.20
45034;BMP280;30771;47.988;-4.186;2023-03-23T19:17:01;97047.56;;;11.19
45034;BMP280;30771;47.988;-4.186;2023-03-23T19:19:27;97048.63;;;11.18
45034;BMP280;30771;47.988;-4.186;2023-03-23T19:21:52;97062.19;;;11.25
45034;BMP280;30771;47.988;-4.186;2023-03-23T19:24:17;97058.00;;;11.24
45034;BMP280;30771;47.988;-4.186;2023-03-23T19:26:44;97061.66;;;11.28
45034;BMP280;30771;47.988;-4.186;2023-03-23T19:29:12;97062.91;;;11.30
45034;BMP280;30771;47.988;-4.186;2023-03-23T19:31:38;97069.72;;;11.31
45034;BMP280;30771;47.988;-4.186;2023-03-23T19:34:03;97066.53;;;11.34
45034;BMP280;30771;47.988;-4.186;2023-03-23T19:36:28;97072.59;;;11.35
45034;BMP280;30771;47.988;-4.186;2023-03-23T19:38:54;97060.78;;;11.32
45034;BMP280;30771;47.988;-4.186;2023-03-23T19:41:20;97074.09;;;11.41
45034;BMP280;30771;47.988;-4.186;2023-03-23T19:43:46;97068.28;;;11.39
45034;BMP280;30771;47.988;-4.186;2023-03-23T19:46:12;97067.16;;;11.45
45034;BMP280;30771;47.988;-4.186;2023-03-23T19:48:38;97060.03;;;11.45
45034;BMP280;30771;47.988;-4.186;2023-03-23T19:51:04;97066.28;;;11.49
45034;BMP280;30771;47.988;-4.186;2023-03-23T19:53:30;97057.81;;;11.52
45034;BMP280;30771;47.988;-4.186;2023-03-23T19:55:55;97049.69;;;11.49
45034;BMP280;30771;47.988;-4.186;2023-03-23T19:58:20;97051.75;;;11.52
45034;BMP280;30771;47.988;-4.186;2023-03-23T20:00:46;97059.88;;;11.55
45034;BMP280;30771;47.988;-4.186;2023-03-23T20:03:12;97050.09;;;11.56
45034;BMP280;30771;47.988;-4.186;2023-03-23T20:05:38;97040.38;;;11.56
45034;BMP280;30771;47.988;-4.186;2023-03-23T20:08:04;97040.66;;;11.55
45034;BMP280;30771;47.988;-4.186;2023-03-23T20:10:29;97049.84;;;11.57
45034;BMP280;30771;47.988;-4.186;2023-03-23T20:12:55;97041.72;;;11.54
45034;BMP280;30771;47.988;-4.186;2023-03-23T20:15:20;97052.19;;;11.59
45034;BMP280;30771;47.988;-4.186;2023-03-23T20:17:45;97038.28;;;11.53
45034;BMP280;30771;47.988;-4.186;2023-03-23T20:20:10;97052.94;;;11.59
45034;BMP280;30771;47.988;-4.186;2023-03-23T20:22:36;97055.56;;;11.59
45034;BMP280;30771;47.988;-4.186;2023-03-23T20:25:02;97059.78;;;11.60
45034;BMP280;30771;47.988;-4.186;2023-03-23T20:27:28;97048.00;;;11.58
45034;BMP280;30771;47.988;-4.186;2023-03-23T20:29:54;97062.13;;;11.62
45034;BMP280;30771;47.988;-4.186;2023-03-23T20:32:20;97057.91;;;11.61
45034;BMP280;30771;47.988;-4.186;2023-03-23T20:34:46;97062.63;;;11.64
45034;BMP280;30771;47.988;-4.186;2023-03-23T20:37:11;97069.47;;;11.65
45034;BMP280;30771;47.988;-4.186;2023-03-23T20:39:36;97069.94;;;11.67
45034;BMP280;30771;47.988;-4.186;2023-03-23T20:42:02;97074.41;;;11.66
45034;BMP280;30771;47.988;-4.186;2023-03-23T20:44:28;97063.63;;;11.68
45034;BMP280;30771;47.988;-4.186;2023-03-23T20:46:54;97068.69;;;11.64
45034;BMP280;30771;47.988;-4.186;2023-03-23T20:49:19;97072.00;;;11.70
45034;BMP280;30771;47.988;-4.186;2023-03-23T20:51:45;97069.38;;;11.70
45034;BMP280;30771;47.988;-4.186;2023-03-23T20:54:12;97077.28;;;11.70
45034;BMP280;30771;47.988;-4.186;2023-03-23T20:56:37;97074.66;;;11.70
45034;BMP280;30771;47.988;-4.186;2023-03-23T20:59:03;97051.19;;;11.55
45034;BMP280;30771;47.988;-4.186;2023-03-23T21:01:28;97067.09;;;11.63
45034;BMP280;30771;47.988;-4.186;2023-03-23T21:03:53;97066.59;;;11.61
45034;BMP280;30771;47.988;-4.186;2023-03-23T21:06:20;97089.97;;;11.68
45034;BMP280;30771;47.988;-4.186;2023-03-23T21:08:45;97092.84;;;11.66
45034;BMP280;30771;47.988;-4.186;2023-03-23T21:11:20;97090.81;;;11.63
45034;BMP280;30771;47.988;-4.186;2023-03-23T21:13:45;97070.97;;;11.52
45034;BMP280;30771;47.988;-4.186;2023-03-23T21:16:11;97101.94;;;11.60
45034;BMP280;30771;47.988;-4.186;2023-03-23T21:18:36;97098.50;;;11.60
45034;BMP280;30771;47.988;-4.186;2023-03-23T21:21:02;97097.44;;;11.61
45034;BMP280;30771;47.988;-4.186;2023-03-23T21:23:28;97092.00;;;11.57
45034;BMP280;30771;47.988;-4.186;2023-03-23T21:25:54;97085.03;;;11.48
45034;BMP280;30771;47.988;-4.186;2023-03-23T21:28:22;97098.88;;;11.53
45034;BMP280;30771;47.988;-4.186;2023-03-23T21:30:48;97101.88;;;11.47
45034;BMP280;30771;47.988;-4.186;2023-03-23T21:33:13;97100.91;;;11.43
45034;BMP280;30771;47.988;-4.186;2023-03-23T21:35:39;97116.22;;;11.41
45034;BMP280;30771;47.988;-4.186;2023-03-23T21:38:05;97115.69;;;11.39
45034;BMP280;30771;47.988;-4.186;2023-03-23T21:40:30;97113.94;;;11.34
45034;BMP280;30771;47.988;-4.186;2023-03-23T21:42:56;97111.59;;;11.33
45034;BMP280;30771;47.988;-4.186;2023-03-23T21:45:21;97120.94;;;11.39
45034;BMP280;30771;47.988;-4.186;2023-03-23T21:47:47;97124.38;;;11.39
45034;BMP280;30771;47.988;-4.186;2023-03-23T21:50:13;97126.75;;;11.41
45034;BMP280;30771;47.988;-4.186;2023-03-23T21:52:39;97122.53;;;11.40
45034;BMP280;30771;47.988;-4.186;2023-03-23T21:55:05;97121.66;;;11.44
45034;BMP280;30771;47.988;-4.186;2023-03-23T21:57:31;97115.13;;;11.42
45034;BMP280;30771;47.988;-4.186;2023-03-23T21:59:56;97111.22;;;11.39
45034;BMP280;30771;47.988;-4.186;2023-03-23T22:02:22;97130.84;;;11.47
45034;BMP280;30771;47.988;-4.186;2023-03-23T22:04:47;97117.69;;;11.47
45034;BMP280;30771;47.988;-4.186;2023-03-23T22:07:13;97091.41;;;11.28
45034;BMP280;30771;47.988;-4.186;2023-03-23T22:09:39;97113.59;;;11.41
45034;BMP280;30771;47.988;-4.186;2023-03-23T22:12:04;97113.00;;;11.44
45034;BMP280;30771;47.988;-4.186;2023-03-23T22:14:30;97117.69;;;11.47
45034;BMP280;30771;47.988;-4.186;2023-03-23T22:16:55;97102.75;;;11.42
45034;BMP280;30771;47.988;-4.186;2023-03-23T22:19:20;97114.00;;;11.48
45034;BMP280;30771;47.988;-4.186;2023-03-23T22:21:46;97113.69;;;11.49
45034;BMP280;30771;47.988;-4.186;2023-03-23T22:24:11;97092.78;;;11.39
45034;BMP280;30771;47.988;-4.186;2023-03-23T22:26:37;97116.81;;;11.51
45034;BMP280;30771;47.988;-4.186;2023-03-23T22:29:02;97104.50;;;11.47
45034;BMP280;30771;47.988;-4.186;2023-03-23T22:31:30;97113.41;;;11.51
45034;BMP280;30771;47.988;-4.186;2023-03-23T22:33:56;97112.16;;;11.48